createdAt,value
2023-02-03T00:01:44.797Z,56.64
2023-02-03T00:04:11.378Z,55.13
2023-02-03T00:06:38.072Z,55.84
2023-02-03T00:09:04.709Z,54.02
2023-02-03T00:11:31.757Z,55.77
2023-02-03T00:13:58.503Z,55.56
2023-02-03T00:16:25.090Z,55.87
2023-02-03T00:18:51.698Z,53.55
2023-02-03T00:21:18.230Z,53.60
2023-02-03T00:23:44.806Z,54.35
2023-02-03T00:26:16.598Z,53.93
2023-02-03T00:28:44.613Z,53.57
2023-02-03T00:31:19.050Z,53.83
2023-02-03T00:33:46.597Z,53.37
2023-02-03T00:36:13.600Z,52.93
2023-02-03T00:38:40.411Z,52.74
2023-02-03T00:41:07.402Z,52.86
2023-02-03T00:43:34.210Z,53.91
2023-02-03T00:46:01.071Z,53.81
2023-02-03T00:48:27.687Z,53.28
2023-02-03T00:50:54.272Z,53.25
2023-02-03T00:53:20.875Z,51.32
2023-02-03T00:55:47.413Z,51.27
2023-02-03T00:58:14.146Z,50.73
2023-02-03T01:00:40.727Z,51.52
2023-02-03T01:03:07.256Z,50.62
2023-02-03T01:05:33.948Z,52.11
2023-02-03T01:08:01.519Z,51.51
2023-02-03T01:10:29.229Z,50.99
2023-02-03T01:12:55.973Z,51.81
2023-02-03T01:15:22.590Z,51.12
2023-02-03T01:17:49.213Z,50.69
2023-02-03T01:20:17.772Z,50.30
2023-02-03T01:22:44.333Z,50.26
2023-02-03T01:25:10.928Z,51.60
2023-02-03T01:27:37.593Z,50.86
2023-02-03T01:30:04.742Z,50.68
2023-02-03T01:32:31.412Z,50.23
2023-02-03T01:34:58.014Z,51.04
2023-02-03T01:37:24.554Z,49.95
2023-02-03T01:39:51.198Z,50.33
2023-02-03T01:42:17.727Z,52.59
2023-02-03T01:44:47.646Z,50.24
2023-02-03T01:47:32.159Z,50.91
2023-02-03T01:50:13.907Z,51.98
2023-02-03T01:52:43.678Z,51.23
2023-02-03T01:55:14.084Z,51.21
2023-02-03T01:57:56.125Z,51.24
2023-02-03T02:00:23.117Z,50.53
2023-02-03T02:02:50.611Z,50.74
2023-02-03T02:05:42.390Z,49.81
2023-02-03T02:08:13.733Z,51.79
2023-02-03T02:10:40.935Z,52.63
2023-02-03T02:13:07.751Z,51.63
2023-02-03T02:15:49.207Z,50.19
2023-02-03T02:18:18.632Z,50.56
2023-02-03T02:21:11.626Z,50.23
2023-02-03T02:24:10.246Z,49.23
2023-02-03T02:26:42.736Z,49.31
2023-02-03T02:29:18.272Z,49.53
2023-02-03T02:32:10.150Z,49.60
2023-02-03T02:34:52.484Z,51.10
2023-02-03T02:37:37.891Z,49.54
2023-02-03T02:40:29.939Z,48.98
2023-02-03T02:43:02.737Z,48.57
2023-02-03T02:46:00.136Z,49.89
2023-02-03T02:48:39.930Z,48.73
2023-02-03T02:51:09.592Z,50.41
2023-02-03T02:53:40.666Z,50.08
2023-02-03T02:56:11.809Z,51.03
2023-02-03T02:58:40.904Z,51.10
2023-02-03T03:01:09.665Z,51.27
2023-02-03T03:03:40.571Z,49.63
2023-02-03T03:06:13.645Z,49.40
2023-02-03T03:08:49.442Z,50.59
2023-02-03T03:11:17.762Z,49.75
2023-02-03T03:13:52.207Z,48.59
2023-02-03T03:16:27.035Z,48.96
2023-02-03T03:18:59.542Z,48.31
2023-02-03T03:21:32.450Z,48.81
2023-02-03T03:24:03.037Z,48.49
2023-02-03T03:26:42.097Z,48.15
2023-02-03T03:29:19.439Z,47.78
2023-02-03T03:31:46.321Z,48.70
2023-02-03T03:34:14.431Z,48.07
2023-02-03T03:36:48.337Z,47.56
2023-02-03T03:39:37.136Z,49.06
2023-02-03T03:42:23.295Z,47.90
2023-02-03T03:44:56.974Z,48.12
2023-02-03T03:47:42.293Z,48.45
2023-02-03T03:50:15.703Z,48.05
2023-02-03T03:52:45.534Z,47.14
2023-02-03T03:55:14.703Z,46.88
2023-02-03T03:58:04.623Z,48.00
2023-02-03T04:00:33.781Z,46.88
2023-02-03T04:03:07.462Z,47.76
2023-02-03T04:05:34.756Z,47.13
2023-02-03T04:08:02.869Z,46.85
2023-02-03T04:10:32.256Z,46.67
2023-02-03T04:12:58.917Z,47.78
2023-02-03T04:15:25.449Z,47.31
2023-02-03T04:17:52.401Z,46.14
2023-02-03T04:20:18.942Z,47.27
2023-02-03T04:22:46.855Z,47.42
2023-02-03T04:25:13.413Z,46.30
2023-02-03T04:27:40.032Z,46.24
2023-02-03T04:30:07.691Z,46.07
2023-02-03T04:32:35.481Z,45.63
2023-02-03T04:35:02.908Z,46.51
2023-02-03T04:37:29.712Z,46.79
2023-02-03T04:39:56.433Z,45.52
2023-02-03T04:42:23.590Z,47.01
2023-02-03T04:44:50.420Z,47.94
2023-02-03T04:47:17.936Z,46.43
2023-02-03T04:49:44.496Z,46.02
2023-02-03T04:52:11.636Z,47.80
2023-02-03T04:54:38.248Z,47.00
2023-02-03T04:57:06.055Z,47.07
2023-02-03T04:59:32.650Z,47.86
2023-02-03T05:02:01.409Z,47.49
2023-02-03T05:04:27.944Z,46.54
2023-02-03T05:06:56.198Z,46.99
2023-02-03T05:09:23.205Z,46.29
2023-02-03T05:11:49.807Z,47.16
2023-02-03T05:14:16.398Z,46.82
2023-02-03T05:16:43.060Z,46.94
2023-02-03T05:19:09.706Z,46.40
2023-02-03T05:21:36.250Z,46.23
2023-02-03T05:24:06.766Z,46.86
2023-02-03T05:26:35.007Z,47.24
2023-02-03T05:29:01.696Z,47.71
2023-02-03T05:31:28.301Z,46.80
2023-02-03T05:33:54.958Z,46.61
2023-02-03T05:36:21.551Z,48.27
2023-02-03T05:38:48.164Z,48.04
2023-02-03T05:41:33.460Z,49.28
2023-02-03T05:44:00.096Z,48.45
2023-02-03T05:46:26.663Z,49.20
2023-02-03T05:48:53.212Z,50.79
2023-02-03T05:51:20.486Z,52.13
2023-02-03T05:53:47.038Z,51.34
2023-02-03T05:56:13.575Z,49.20
2023-02-03T05:58:40.185Z,49.22
2023-02-03T06:01:06.725Z,48.45
2023-02-03T06:03:33.334Z,49.43
2023-02-03T06:05:59.927Z,48.40
2023-02-03T06:08:28.616Z,48.53
2023-02-03T06:10:59.813Z,47.59
2023-02-03T06:13:26.894Z,47.36
2023-02-03T06:15:53.627Z,47.32
2023-02-03T06:18:20.377Z,50.32
2023-02-03T06:20:46.946Z,49.78
2023-02-03T06:23:13.601Z,49.34
2023-02-03T06:25:40.142Z,48.28
2023-02-03T06:28:06.734Z,48.56
2023-02-03T06:30:33.445Z,50.37
2023-02-03T06:33:00.189Z,48.29
2023-02-03T06:35:26.757Z,48.12
2023-02-03T06:37:53.370Z,48.50
2023-02-03T06:40:20.119Z,48.70
2023-02-03T06:42:47.591Z,48.91
2023-02-03T06:45:15.117Z,49.34
2023-02-03T06:47:42.540Z,49.94
2023-02-03T06:50:11.513Z,49.88
2023-02-03T06:52:38.483Z,49.31
2023-02-03T06:55:05.779Z,48.79
2023-02-03T06:57:32.950Z,49.01
2023-02-03T06:59:59.551Z,49.01
2023-02-03T07:02:26.176Z,49.42
2023-02-03T07:04:52.738Z,48.13
2023-02-03T07:07:19.387Z,49.18
2023-02-03T07:09:46.128Z,48.70
2023-02-03T07:12:12.747Z,47.22
2023-02-03T07:14:39.432Z,48.49
2023-02-03T07:17:06.983Z,49.09
2023-02-03T07:19:33.628Z,48.10
2023-02-03T07:22:00.228Z,47.37
2023-02-03T07:24:26.923Z,47.82
2023-02-03T07:26:53.677Z,47.88
2023-02-03T07:29:20.201Z,48.10
2023-02-03T07:31:46.791Z,50.25
2023-02-03T07:34:13.475Z,47.85
2023-02-03T07:36:41.338Z,47.41
2023-02-03T07:39:07.912Z,47.01
2023-02-03T07:41:34.436Z,47.86
2023-02-03T07:44:01.048Z,47.31
2023-02-03T07:46:27.872Z,46.19
2023-02-03T07:48:54.438Z,46.81
2023-02-03T07:51:21.340Z,45.35
2023-02-03T07:53:48.042Z,47.42
2023-02-03T07:56:14.689Z,47.08
2023-02-03T07:58:41.279Z,46.74
2023-02-03T08:01:16.643Z,44.56
2023-02-03T08:03:43.237Z,46.24
2023-02-03T08:06:10.077Z,45.67
2023-02-03T08:08:36.859Z,45.93
2023-02-03T08:11:03.514Z,46.91
2023-02-03T08:13:30.112Z,45.78
2023-02-03T08:15:56.775Z,44.05
2023-02-03T08:18:23.626Z,46.85
2023-02-03T08:20:50.561Z,44.31
2023-02-03T08:23:17.130Z,45.26
2023-02-03T08:25:43.761Z,44.09
2023-02-03T08:28:10.355Z,45.38
2023-02-03T08:30:37.156Z,45.15
2023-02-03T08:33:03.778Z,44.06
2023-02-03T08:35:30.338Z,43.74
2023-02-03T08:37:56.869Z,44.35
2023-02-03T08:40:23.426Z,44.22
2023-02-03T08:42:50.028Z,44.53
2023-02-03T08:45:16.700Z,43.81
2023-02-03T08:47:43.249Z,43.73
2023-02-03T08:50:10.440Z,44.13
2023-02-03T08:52:37.074Z,44.14
2023-02-03T08:55:03.958Z,43.89
2023-02-03T08:57:35.954Z,44.31
2023-02-03T09:00:04.247Z,45.08
2023-02-03T09:02:30.967Z,43.95
2023-02-03T09:04:58.116Z,44.14
2023-02-03T09:07:24.881Z,44.41
2023-02-03T09:09:51.461Z,44.05
2023-02-03T09:12:18.083Z,44.79
2023-02-03T09:14:44.668Z,44.89
2023-02-03T09:17:11.493Z,45.50
2023-02-03T09:19:38.120Z,44.37
2023-02-03T09:22:05.261Z,45.51
2023-02-03T09:24:32.194Z,45.17
2023-02-03T09:27:00.911Z,43.63
2023-02-03T09:29:27.532Z,43.45
2023-02-03T09:31:54.197Z,43.32
2023-02-03T09:34:21.347Z,42.81
2023-02-03T09:36:48.476Z,44.03
2023-02-03T09:39:15.521Z,44.58
2023-02-03T09:41:47.986Z,43.05
2023-02-03T09:44:26.531Z,43.55
2023-02-03T09:47:24.826Z,43.22
2023-02-03T09:49:59.113Z,42.98
2023-02-03T09:52:32.719Z,43.17
2023-02-03T09:55:29.922Z,42.78
2023-02-03T09:58:12.333Z,42.23
2023-02-03T10:00:44.836Z,40.22
2023-02-03T10:03:30.209Z,42.01
2023-02-03T10:06:21.583Z,42.21
2023-02-03T10:09:08.909Z,44.67
2023-02-03T10:11:46.582Z,41.98
2023-02-03T10:14:58.769Z,41.97
2023-02-03T10:17:33.949Z,42.90
2023-02-03T10:20:09.440Z,42.79
2023-02-03T10:22:45.768Z,41.67
2023-02-03T10:25:20.865Z,43.18
2023-02-03T10:27:49.129Z,42.56
2023-02-03T10:30:22.890Z,41.96
2023-02-03T10:32:54.137Z,41.61
2023-02-03T10:35:24.762Z,41.27
2023-02-03T10:37:56.714Z,42.86
2023-02-03T10:40:25.954Z,42.03
2023-02-03T10:43:11.610Z,41.86
2023-02-03T10:45:39.314Z,44.32
2023-02-03T10:48:12.069Z,43.98
2023-02-03T10:50:44.343Z,43.41
2023-02-03T10:53:22.369Z,40.93
2023-02-03T10:56:11.438Z,44.01
2023-02-03T10:58:40.019Z,42.02
2023-02-03T11:01:13.338Z,41.71
2023-02-03T11:03:45.114Z,40.65
2023-02-03T11:06:13.369Z,39.88
2023-02-03T11:08:44.660Z,40.54
2023-02-03T11:11:24.542Z,39.89
2023-02-03T11:14:13.024Z,39.82
2023-02-03T11:16:42.701Z,41.41
2023-02-03T11:19:22.621Z,40.61
2023-02-03T11:21:52.203Z,40.22
2023-02-03T11:24:38.483Z,41.18
2023-02-03T11:27:18.323Z,41.08
2023-02-03T11:29:47.661Z,39.96
2023-02-03T11:32:22.921Z,38.51
2023-02-03T11:34:58.793Z,39.27
2023-02-03T11:37:34.616Z,39.70
2023-02-03T11:40:07.176Z,39.84
2023-02-03T11:42:36.237Z,40.22
2023-02-03T11:45:14.661Z,40.43
2023-02-03T11:47:48.770Z,39.90
2023-02-03T11:50:54.883Z,39.28
2023-02-03T11:53:27.552Z,40.28
2023-02-03T11:56:31.574Z,39.40
2023-02-03T11:59:35.751Z,37.62
2023-02-03T12:02:33.539Z,36.89
2023-02-03T12:05:05.876Z,38.10
2023-02-03T12:08:04.661Z,37.20
2023-02-03T12:10:47.109Z,38.46
2023-02-03T12:14:02.272Z,38.46
2023-02-03T12:16:31.822Z,39.65
2023-02-03T12:19:38.824Z,37.73
2023-02-03T12:22:19.731Z,39.72
2023-02-03T12:25:07.762Z,38.26
2023-02-03T12:27:56.097Z,38.33
2023-02-03T12:30:28.765Z,39.83
2023-02-03T12:33:00.285Z,38.63
2023-02-03T12:35:38.962Z,39.60
2023-02-03T12:38:21.496Z,39.28
2023-02-03T12:40:55.289Z,38.13
2023-02-03T12:43:37.519Z,38.99
2023-02-03T12:46:35.007Z,39.38
2023-02-03T12:49:26.548Z,39.23
2023-02-03T12:52:01.663Z,40.35
2023-02-03T12:54:33.254Z,39.61
2023-02-03T12:57:17.011Z,39.91
2023-02-03T12:59:46.676Z,40.36
2023-02-03T13:02:27.518Z,39.58
2023-02-03T13:05:00.375Z,41.28
2023-02-03T13:07:47.647Z,39.97
2023-02-03T13:10:29.683Z,40.47
2023-02-03T13:12:58.789Z,40.81
2023-02-03T13:15:39.221Z,40.51
2023-02-03T13:18:11.090Z,40.19
2023-02-03T13:20:37.731Z,40.44
2023-02-03T13:23:07.780Z,40.83
2023-02-03T13:26:12.321Z,42.27
2023-02-03T13:29:09.022Z,40.66
2023-02-03T13:31:41.654Z,40.71
2023-02-03T13:34:37.523Z,40.65
2023-02-03T13:37:23.154Z,41.26
2023-02-03T13:40:14.211Z,40.99
2023-02-03T13:43:32.197Z,41.26
2023-02-03T13:46:07.328Z,40.66
2023-02-03T13:48:35.571Z,40.67
2023-02-03T13:51:04.093Z,41.62
2023-02-03T13:53:39.015Z,42.60
2023-02-03T13:56:09.685Z,41.46
2023-02-03T13:58:39.189Z,41.37
2023-02-03T14:01:30.219Z,40.91
2023-02-03T14:03:58.494Z,41.11
2023-02-03T14:06:40.631Z,42.25
2023-02-03T14:09:22.166Z,41.86
2023-02-03T14:12:12.738Z,41.74
2023-02-03T14:14:39.221Z,41.62
2023-02-03T14:17:51.215Z,41.59
2023-02-03T14:20:26.764Z,41.05
2023-02-03T14:23:00.645Z,41.80
2023-02-03T14:25:28.214Z,40.77
2023-02-03T14:28:03.878Z,42.11
2023-02-03T14:30:30.604Z,41.82
2023-02-03T14:33:05.495Z,42.36
2023-02-03T14:35:40.156Z,42.28
2023-02-03T14:38:11.582Z,42.13
2023-02-03T14:40:57.573Z,42.56
2023-02-03T14:43:47.410Z,42.77
2023-02-03T14:47:05.666Z,42.58
2023-02-03T14:49:55.809Z,42.59
2023-02-03T14:52:25.560Z,43.60
2023-02-03T14:55:10.795Z,43.57
2023-02-03T14:57:49.485Z,42.67
2023-02-03T15:00:22.891Z,42.38
2023-02-03T15:03:10.486Z,44.64
2023-02-03T15:05:43.780Z,44.17
2023-02-03T15:08:33.183Z,42.54
2023-02-03T15:11:14.639Z,43.23
2023-02-03T15:13:41.324Z,44.12
2023-02-03T15:16:15.992Z,44.04
2023-02-03T15:18:42.573Z,43.67
2023-02-03T15:21:19.066Z,43.32
2023-02-03T15:23:48.093Z,42.44
2023-02-03T15:26:27.666Z,43.44
2023-02-03T15:29:07.673Z,43.93
2023-02-03T15:31:37.122Z,42.77
2023-02-03T15:34:26.343Z,43.30
2023-02-03T15:36:56.826Z,43.11
2023-02-03T15:39:45.951Z,42.76
2023-02-03T15:42:19.699Z,42.15
2023-02-03T15:44:55.755Z,42.39
2023-02-03T15:47:28.942Z,43.29
2023-02-03T15:50:08.153Z,42.02
2023-02-03T15:52:39.306Z,42.89
2023-02-03T15:55:18.039Z,43.46
2023-02-03T15:57:48.234Z,43.09
2023-02-03T16:00:30.350Z,42.92
2023-02-03T16:03:03.048Z,43.24
2023-02-03T16:05:33.532Z,43.56
2023-02-03T16:08:48.902Z,43.31
2023-02-03T16:11:32.692Z,44.00
2023-02-03T16:14:08.156Z,44.27
2023-02-03T16:16:40.075Z,44.44
2023-02-03T16:19:20.505Z,44.28
2023-02-03T16:21:49.998Z,43.42
2023-02-03T16:24:40.863Z,44.42
2023-02-03T16:27:25.840Z,44.26
2023-02-03T16:30:11.628Z,45.19
2023-02-03T16:32:57.115Z,45.86
2023-02-03T16:35:42.865Z,46.53
2023-02-03T16:38:58.286Z,45.46
2023-02-03T16:41:45.094Z,44.73
2023-02-03T16:44:30.623Z,45.08
2023-02-03T16:47:16.052Z,46.19
2023-02-03T16:50:01.047Z,45.09
2023-02-03T16:52:27.594Z,45.29
2023-02-03T16:54:54.492Z,46.22
2023-02-03T16:57:21.053Z,45.49
2023-02-03T16:59:47.579Z,45.13
2023-02-03T17:02:14.198Z,45.64
2023-02-03T17:04:41.249Z,44.65
2023-02-03T17:07:08.006Z,47.06
2023-02-03T17:09:35.346Z,45.45
2023-02-03T17:12:03.134Z,46.87
2023-02-03T17:14:30.802Z,47.39
2023-02-03T17:16:58.499Z,45.60
2023-02-03T17:19:25.041Z,44.70
2023-02-03T17:21:52.433Z,45.91
2023-02-03T17:24:19.523Z,46.09
2023-02-03T17:26:46.086Z,45.78
2023-02-03T17:29:12.597Z,47.29
2023-02-03T17:31:39.226Z,46.50
2023-02-03T17:34:05.844Z,47.26
2023-02-03T17:36:32.420Z,47.97
2023-02-03T17:55:25.563Z,49.33
2023-02-03T17:57:52.114Z,48.13
2023-02-03T18:00:19.101Z,49.31
2023-02-03T18:02:50.772Z,48.94
2023-02-03T18:05:18.716Z,48.63
2023-02-03T18:07:45.680Z,49.54
2023-02-03T18:10:12.638Z,49.61
2023-02-03T18:12:39.184Z,48.28
2023-02-03T18:15:06.183Z,48.97
2023-02-03T18:17:32.804Z,49.91
2023-02-03T18:20:01.159Z,49.90
2023-02-03T18:22:27.838Z,50.14
2023-02-03T18:24:55.519Z,51.15
2023-02-03T18:27:22.101Z,50.77
2023-02-03T18:29:48.882Z,50.51
2023-02-03T18:32:16.794Z,50.86
2023-02-03T18:34:43.686Z,51.01
2023-02-03T18:37:11.172Z,51.94
2023-02-03T18:39:37.733Z,51.77
2023-02-03T18:42:04.652Z,52.64
2023-02-03T18:44:31.699Z,51.37
2023-02-03T18:47:06.398Z,50.86
2023-02-03T18:49:38.239Z,50.32
2023-02-03T18:52:05.370Z,51.49
2023-02-03T18:54:32.337Z,52.10
2023-02-03T18:56:59.037Z,51.75
2023-02-03T18:59:25.969Z,51.00
2023-02-03T19:01:52.683Z,51.35
2023-02-03T19:04:19.244Z,51.29
2023-02-03T19:06:45.819Z,51.76
2023-02-03T19:09:15.997Z,53.81
2023-02-03T19:11:43.116Z,54.61
2023-02-03T19:14:09.665Z,53.91
2023-02-03T19:16:36.241Z,56.98
2023-02-03T19:19:02.763Z,56.53
2023-02-03T19:21:29.307Z,58.26
2023-02-03T19:23:55.919Z,57.10
2023-02-03T19:26:22.516Z,58.40
2023-02-03T19:28:49.279Z,59.57
2023-02-03T19:31:16.060Z,60.01
2023-02-03T19:33:43.042Z,61.89
2023-02-03T19:36:10.758Z,60.44
2023-02-03T19:38:37.504Z,60.60
2023-02-03T19:41:04.517Z,60.03
2023-02-03T19:43:31.674Z,60.51
2023-02-03T19:45:58.739Z,61.44
2023-02-03T19:48:25.424Z,62.13
2023-02-03T19:50:51.951Z,61.69
2023-02-03T19:53:18.847Z,60.74
2023-02-03T19:55:46.553Z,63.13
2023-02-03T19:58:13.975Z,61.07
2023-02-03T20:00:41.465Z,61.87
2023-02-03T20:03:08.049Z,61.29
2023-02-03T20:05:35.964Z,61.17
2023-02-03T20:08:03.084Z,60.59
2023-02-03T20:10:30.452Z,63.16
2023-02-03T20:12:57.176Z,61.99
2023-02-03T20:15:23.737Z,61.49
2023-02-03T20:17:50.421Z,60.41
2023-02-03T20:20:19.778Z,62.20
2023-02-03T20:22:47.238Z,64.08
2023-02-03T20:25:14.383Z,61.85
2023-02-03T20:27:41.247Z,62.50
2023-02-03T20:30:08.379Z,62.61
2023-02-03T20:32:34.976Z,64.60
2023-02-03T20:35:03.979Z,62.81
2023-02-03T20:37:30.548Z,64.59
2023-02-03T20:39:57.070Z,65.32
2023-02-03T20:42:23.678Z,63.02
2023-02-03T20:44:50.188Z,63.23
2023-02-03T20:47:22.349Z,65.09
2023-02-03T20:49:49.584Z,63.68
2023-02-03T20:52:19.835Z,64.41
2023-02-03T20:54:46.828Z,63.17
2023-02-03T20:57:15.798Z,64.36
2023-02-03T20:59:44.496Z,62.75
2023-02-03T21:02:30.619Z,63.95
2023-02-03T21:05:00.548Z,62.72
2023-02-03T21:07:30.425Z,61.01
2023-02-03T21:09:58.724Z,63.23
2023-02-03T21:12:26.858Z,62.47
2023-02-03T21:14:54.945Z,59.91
2023-02-03T21:17:26.490Z,62.78
2023-02-03T21:19:54.886Z,60.25
2023-02-03T21:22:27.076Z,62.50
2023-02-03T21:25:03.411Z,62.55
2023-02-03T21:27:34.265Z,61.49
2023-02-03T21:30:03.384Z,60.83
2023-02-03T21:32:38.355Z,62.17
2023-02-03T21:35:25.638Z,61.99
2023-02-03T21:37:55.932Z,61.87
2023-02-03T21:40:28.311Z,60.12
2023-02-03T21:42:55.524Z,61.79
2023-02-03T21:45:24.126Z,62.38
2023-02-03T21:47:52.658Z,59.49
2023-02-03T21:50:36.797Z,59.25
2023-02-03T21:53:09.994Z,60.58
2023-02-03T21:55:37.493Z,60.16
2023-02-03T21:58:34.753Z,62.37
2023-02-03T22:01:06.142Z,60.15
2023-02-03T22:03:36.555Z,61.33
2023-02-03T22:06:03.266Z,61.06
2023-02-03T22:08:33.142Z,61.91
2023-02-03T22:10:59.671Z,62.14
2023-02-03T22:13:26.248Z,60.21
2023-02-03T22:15:52.820Z,60.91
2023-02-03T22:18:19.322Z,61.58
2023-02-03T22:20:45.853Z,63.21
2023-02-03T22:23:12.451Z,62.48
2023-02-03T22:25:39.507Z,60.56
2023-02-03T22:28:06.540Z,60.30
2023-02-03T22:30:33.801Z,60.53
2023-02-03T22:33:02.053Z,60.38
2023-02-03T22:35:29.013Z,60.22
2023-02-03T22:37:55.575Z,60.63
2023-02-03T22:40:22.316Z,61.06
2023-02-03T22:42:48.892Z,58.21
2023-02-03T22:45:16.036Z,60.34
2023-02-03T22:47:42.680Z,62.36
2023-02-03T22:50:11.935Z,59.64
2023-02-03T22:52:38.665Z,59.91
2023-02-03T22:55:06.877Z,61.11
2023-02-03T22:57:33.515Z,59.33
2023-02-03T23:00:00.209Z,59.33
2023-02-03T23:02:27.106Z,60.19
2023-02-03T23:04:53.675Z,59.26
2023-02-03T23:07:20.203Z,62.07
2023-02-03T23:09:46.738Z,61.00
2023-02-03T23:12:13.359Z,62.58
2023-02-03T23:14:39.901Z,62.86
2023-02-03T23:17:06.463Z,62.52
2023-02-03T23:19:33.002Z,63.59
2023-02-03T23:21:59.560Z,62.99
2023-02-03T23:24:26.078Z,62.93
2023-02-03T23:26:52.699Z,63.61
2023-02-03T23:29:19.260Z,63.16
2023-02-03T23:31:45.941Z,61.51
2023-02-03T23:34:31.178Z,62.72
2023-02-03T23:37:01.148Z,60.23
2023-02-03T23:39:30.745Z,62.15
2023-02-03T23:41:57.656Z,63.05
2023-02-03T23:44:24.210Z,62.09
2023-02-03T23:46:50.779Z,62.86
2023-02-03T23:49:17.317Z,61.42
2023-02-03T23:51:43.853Z,63.48
2023-02-03T23:54:10.383Z,64.07
2023-02-03T23:56:36.928Z,62.43
2023-02-03T23:59:03.485Z,61.96
